sensor_id;sensor_type;location;lat;lon;timestamp;P1;durP1;ratioP1;P2;durP2;ratioP2
34317;SDS011;20582;52.196;20.952;2023-04-24T00:00:14;16.42;;;9.38;;
34317;SDS011;20582;52.196;20.952;2023-04-24T00:02:41;19.83;;;10.48;;
34317;SDS011;20582;52.196;20.952;2023-04-24T00:05:09;17.08;;;10.73;;
34317;SDS011;20582;52.196;20.952;2023-04-24T00:07:36;21.25;;;10.63;;
34317;SDS011;20582;52.196;20.952;2023-04-24T00:10:02;16.02;;;10.43;;
34317;SDS011;20582;52.196;20.952;2023-04-24T00:12:28;14.27;;;9.60;;
34317;SDS011;20582;52.196;20.952;2023-04-24T00:14:54;15.18;;;10.05;;
34317;SDS011;20582;52.196;20.952;2023-04-24T00:17:20;16.58;;;10.15;;
34317;SDS011;20582;52.196;20.952;2023-04-24T00:19:47;17.65;;;10.45;;
34317;SDS011;20582;52.196;20.952;2023-04-24T00:22:13;16.27;;;10.27;;
34317;SDS011;20582;52.196;20.952;2023-04-24T00:24:39;17.75;;;10.38;;
34317;SDS011;20582;52.196;20.952;2023-04-24T00:27:05;15.65;;;10.52;;
34317;SDS011;20582;52.196;20.952;2023-04-24T00:29:31;17.42;;;10.02;;
34317;SDS011;20582;52.196;20.952;2023-04-24T00:31:57;17.73;;;10.25;;
34317;SDS011;20582;52.196;20.952;2023-04-24T00:34:23;15.00;;;9.77;;
34317;SDS011;20582;52.196;20.952;2023-04-24T00:36:49;15.88;;;10.02;;
34317;SDS011;20582;52.196;20.952;2023-04-24T00:39:17;17.58;;;9.60;;
34317;SDS011;20582;52.196;20.952;2023-04-24T00:41:43;20.33;;;9.98;;
34317;SDS011;20582;52.196;20.952;2023-04-24T00:44:10;16.55;;;9.57;;
34317;SDS011;20582;52.196;20.952;2023-04-24T00:46:36;20.83;;;10.13;;
34317;SDS011;20582;52.196;20.952;2023-04-24T00:49:02;17.77;;;10.90;;
34317;SDS011;20582;52.196;20.952;2023-04-24T00:51:28;18.70;;;9.80;;
34317;SDS011;20582;52.196;20.952;2023-04-24T00:53:55;16.45;;;10.48;;
34317;SDS011;20582;52.196;20.952;2023-04-24T00:56:21;20.75;;;10.90;;
34317;SDS011;20582;52.196;20.952;2023-04-24T00:58:48;17.38;;;10.82;;
34317;SDS011;20582;52.196;20.952;2023-04-24T01:01:14;17.30;;;10.65;;
34317;SDS011;20582;52.196;20.952;2023-04-24T01:03:41;20.80;;;10.90;;
34317;SDS011;20582;52.196;20.952;2023-04-24T01:06:07;18.98;;;10.35;;
34317;SDS011;20582;52.196;20.952;2023-04-24T01:08:34;18.13;;;10.48;;
34317;SDS011;20582;52.196;20.952;2023-04-24T01:11:00;19.27;;;10.93;;
34317;SDS011;20582;52.196;20.952;2023-04-24T01:13:28;16.75;;;10.60;;
34317;SDS011;20582;52.196;20.952;2023-04-24T01:15:54;17.77;;;10.02;;
34317;SDS011;20582;52.196;20.952;2023-04-24T01:18:20;16.58;;;10.18;;
34317;SDS011;20582;52.196;20.952;2023-04-24T01:20:46;17.95;;;10.70;;
34317;SDS011;20582;52.196;20.952;2023-04-24T01:23:15;20.40;;;10.75;;
34317;SDS011;20582;52.196;20.952;2023-04-24T01:25:41;20.90;;;10.98;;
34317;SDS011;20582;52.196;20.952;2023-04-24T01:28:07;20.15;;;10.85;;
34317;SDS011;20582;52.196;20.952;2023-04-24T01:30:33;20.50;;;10.70;;
34317;SDS011;20582;52.196;20.952;2023-04-24T01:32:59;20.08;;;11.60;;
34317;SDS011;20582;52.196;20.952;2023-04-24T01:35:25;20.27;;;11.13;;
34317;SDS011;20582;52.196;20.952;2023-04-24T01:37:51;17.13;;;10.95;;
34317;SDS011;20582;52.196;20.952;2023-04-24T01:40:17;19.85;;;10.48;;
34317;SDS011;20582;52.196;20.952;2023-04-24T01:42:43;21.60;;;11.30;;
34317;SDS011;20582;52.196;20.952;2023-04-24T01:45:10;19.20;;;11.10;;
34317;SDS011;20582;52.196;20.952;2023-04-24T01:47:36;19.67;;;10.88;;
34317;SDS011;20582;52.196;20.952;2023-04-24T01:50:02;23.67;;;11.90;;
34317;SDS011;20582;52.196;20.952;2023-04-24T01:52:28;18.52;;;11.70;;
34317;SDS011;20582;52.196;20.952;2023-04-24T01:54:56;20.45;;;11.35;;
34317;SDS011;20582;52.196;20.952;2023-04-24T01:57:22;18.52;;;10.95;;
34317;SDS011;20582;52.196;20.952;2023-04-24T01:59:48;21.55;;;11.75;;
34317;SDS011;20582;52.196;20.952;2023-04-24T02:02:14;17.67;;;11.25;;
34317;SDS011;20582;52.196;20.952;2023-04-24T02:04:40;18.75;;;11.43;;
34317;SDS011;20582;52.196;20.952;2023-04-24T02:07:06;22.77;;;11.20;;
34317;SDS011;20582;52.196;20.952;2023-04-24T02:09:32;18.27;;;11.35;;
34317;SDS011;20582;52.196;20.952;2023-04-24T02:11:58;19.70;;;11.65;;
34317;SDS011;20582;52.196;20.952;2023-04-24T02:14:25;18.10;;;11.63;;
34317;SDS011;20582;52.196;20.952;2023-04-24T02:16:51;17.95;;;11.45;;
34317;SDS011;20582;52.196;20.952;2023-04-24T02:19:18;18.35;;;11.25;;
34317;SDS011;20582;52.196;20.952;2023-04-24T02:21:44;17.65;;;11.75;;
34317;SDS011;20582;52.196;20.952;2023-04-24T02:24:10;20.10;;;11.88;;
34317;SDS011;20582;52.196;20.952;2023-04-24T02:26:36;19.77;;;11.70;;
34317;SDS011;20582;52.196;20.952;2023-04-24T02:29:02;19.25;;;11.55;;
34317;SDS011;20582;52.196;20.952;2023-04-24T02:31:28;20.63;;;11.25;;
34317;SDS011;20582;52.196;20.952;2023-04-24T02:33:54;17.92;;;10.70;;
34317;SDS011;20582;52.196;20.952;2023-04-24T02:36:20;19.70;;;12.02;;
34317;SDS011;20582;52.196;20.952;2023-04-24T02:38:46;19.10;;;11.80;;
34317;SDS011;20582;52.196;20.952;2023-04-24T02:41:12;21.30;;;12.15;;
34317;SDS011;20582;52.196;20.952;2023-04-24T02:43:38;17.13;;;11.52;;
34317;SDS011;20582;52.196;20.952;2023-04-24T02:46:04;18.52;;;12.00;;
34317;SDS011;20582;52.196;20.952;2023-04-24T02:48:30;19.02;;;11.82;;
34317;SDS011;20582;52.196;20.952;2023-04-24T02:50:56;19.85;;;11.77;;
34317;SDS011;20582;52.196;20.952;2023-04-24T02:53:22;22.08;;;11.70;;
34317;SDS011;20582;52.196;20.952;2023-04-24T02:55:48;21.20;;;11.35;;
34317;SDS011;20582;52.196;20.952;2023-04-24T02:58:14;17.92;;;10.90;;
34317;SDS011;20582;52.196;20.952;2023-04-24T03:00:41;17.98;;;11.13;;
34317;SDS011;20582;52.196;20.952;2023-04-24T03:03:08;19.38;;;11.30;;
34317;SDS011;20582;52.196;20.952;2023-04-24T03:05:34;20.55;;;11.63;;
34317;SDS011;20582;52.196;20.952;2023-04-24T03:08:00;17.38;;;11.07;;
34317;SDS011;20582;52.196;20.952;2023-04-24T03:10:26;19.60;;;11.27;;
34317;SDS011;20582;52.196;20.952;2023-04-24T03:12:52;18.55;;;11.02;;
34317;SDS011;20582;52.196;20.952;2023-04-24T03:15:19;15.73;;;11.00;;
34317;SDS011;20582;52.196;20.952;2023-04-24T03:17:45;17.95;;;10.90;;
34317;SDS011;20582;52.196;20.952;2023-04-24T03:20:11;19.08;;;11.52;;
34317;SDS011;20582;52.196;20.952;2023-04-24T03:22:37;20.98;;;11.45;;
34317;SDS011;20582;52.196;20.952;2023-04-24T03:25:03;21.95;;;12.43;;
34317;SDS011;20582;52.196;20.952;2023-04-24T03:27:30;18.17;;;11.45;;
34317;SDS011;20582;52.196;20.952;2023-04-24T03:29:56;20.10;;;11.88;;
34317;SDS011;20582;52.196;20.952;2023-04-24T03:32:22;16.25;;;10.25;;
34317;SDS011;20582;52.196;20.952;2023-04-24T03:34:48;20.50;;;11.32;;
34317;SDS011;20582;52.196;20.952;2023-04-24T03:37:15;22.15;;;10.82;;
34317;SDS011;20582;52.196;20.952;2023-04-24T03:39:41;20.30;;;10.85;;
34317;SDS011;20582;52.196;20.952;2023-04-24T03:42:07;19.48;;;10.75;;
34317;SDS011;20582;52.196;20.952;2023-04-24T03:44:33;17.05;;;10.43;;
34317;SDS011;20582;52.196;20.952;2023-04-24T03:46:59;17.45;;;10.75;;
34317;SDS011;20582;52.196;20.952;2023-04-24T03:49:25;21.45;;;10.40;;
34317;SDS011;20582;52.196;20.952;2023-04-24T03:51:51;17.58;;;10.27;;
34317;SDS011;20582;52.196;20.952;2023-04-24T03:54:20;19.10;;;10.98;;
34317;SDS011;20582;52.196;20.952;2023-04-24T03:56:46;18.98;;;10.77;;
34317;SDS011;20582;52.196;20.952;2023-04-24T03:59:12;20.20;;;11.80;;
34317;SDS011;20582;52.196;20.952;2023-04-24T04:01:38;22.25;;;12.85;;
34317;SDS011;20582;52.196;20.952;2023-04-24T04:04:05;17.92;;;11.35;;
34317;SDS011;20582;52.196;20.952;2023-04-24T04:06:31;21.48;;;11.65;;
34317;SDS011;20582;52.196;20.952;2023-04-24T04:08:57;19.98;;;11.50;;
34317;SDS011;20582;52.196;20.952;2023-04-24T04:11:23;16.75;;;10.90;;
34317;SDS011;20582;52.196;20.952;2023-04-24T04:13:50;16.40;;;10.55;;
34317;SDS011;20582;52.196;20.952;2023-04-24T04:16:16;22.55;;;11.65;;
34317;SDS011;20582;52.196;20.952;2023-04-24T04:18:42;20.27;;;11.07;;
34317;SDS011;20582;52.196;20.952;2023-04-24T04:21:08;19.75;;;11.20;;
34317;SDS011;20582;52.196;20.952;2023-04-24T04:23:34;19.45;;;11.57;;
34317;SDS011;20582;52.196;20.952;2023-04-24T04:26:00;17.40;;;11.60;;
34317;SDS011;20582;52.196;20.952;2023-04-24T04:28:27;17.98;;;11.48;;
34317;SDS011;20582;52.196;20.952;2023-04-24T04:30:53;19.45;;;12.05;;
34317;SDS011;20582;52.196;20.952;2023-04-24T04:33:20;22.25;;;11.65;;
34317;SDS011;20582;52.196;20.952;2023-04-24T04:35:46;18.17;;;11.32;;
34317;SDS011;20582;52.196;20.952;2023-04-24T04:38:14;18.90;;;12.10;;
34317;SDS011;20582;52.196;20.952;2023-04-24T04:40:40;19.77;;;11.60;;
34317;SDS011;20582;52.196;20.952;2023-04-24T04:43:06;20.92;;;11.60;;
34317;SDS011;20582;52.196;20.952;2023-04-24T04:45:32;20.33;;;10.93;;
34317;SDS011;20582;52.196;20.952;2023-04-24T04:47:59;24.10;;;12.13;;
34317;SDS011;20582;52.196;20.952;2023-04-24T04:50:27;15.75;;;10.48;;
34317;SDS011;20582;52.196;20.952;2023-04-24T04:52:53;23.15;;;12.02;;
34317;SDS011;20582;52.196;20.952;2023-04-24T04:55:19;20.92;;;12.35;;
34317;SDS011;20582;52.196;20.952;2023-04-24T04:57:46;21.08;;;11.57;;
34317;SDS011;20582;52.196;20.952;2023-04-24T05:00:12;20.70;;;11.95;;
34317;SDS011;20582;52.196;20.952;2023-04-24T05:02:38;20.90;;;11.73;;
34317;SDS011;20582;52.196;20.952;2023-04-24T05:05:05;20.35;;;11.45;;
34317;SDS011;20582;52.196;20.952;2023-04-24T05:07:31;17.13;;;11.65;;
34317;SDS011;20582;52.196;20.952;2023-04-24T05:09:57;21.38;;;11.65;;
34317;SDS011;20582;52.196;20.952;2023-04-24T05:12:23;23.92;;;12.60;;
34317;SDS011;20582;52.196;20.952;2023-04-24T05:14:49;22.67;;;12.57;;
34317;SDS011;20582;52.196;20.952;2023-04-24T05:17:15;23.67;;;11.68;;
34317;SDS011;20582;52.196;20.952;2023-04-24T05:19:41;24.08;;;11.98;;
34317;SDS011;20582;52.196;20.952;2023-04-24T05:22:07;25.58;;;12.02;;
34317;SDS011;20582;52.196;20.952;2023-04-24T05:24:34;19.90;;;10.80;;
34317;SDS011;20582;52.196;20.952;2023-04-24T05:27:00;20.83;;;11.00;;
34317;SDS011;20582;52.196;20.952;2023-04-24T05:29:27;19.85;;;11.63;;
34317;SDS011;20582;52.196;20.952;2023-04-24T05:31:55;18.48;;;11.20;;
34317;SDS011;20582;52.196;20.952;2023-04-24T05:34:21;25.23;;;11.63;;
34317;SDS011;20582;52.196;20.952;2023-04-24T05:36:47;20.23;;;11.63;;
34317;SDS011;20582;52.196;20.952;2023-04-24T05:39:14;20.23;;;11.48;;
34317;SDS011;20582;52.196;20.952;2023-04-24T05:41:40;19.45;;;11.43;;
34317;SDS011;20582;52.196;20.952;2023-04-24T05:44:06;18.77;;;11.43;;
34317;SDS011;20582;52.196;20.952;2023-04-24T05:46:32;17.88;;;10.85;;
34317;SDS011;20582;52.196;20.952;2023-04-24T05:48:58;19.77;;;11.15;;
34317;SDS011;20582;52.196;20.952;2023-04-24T05:51:24;17.20;;;10.73;;
34317;SDS011;20582;52.196;20.952;2023-04-24T05:53:50;17.67;;;10.82;;
34317;SDS011;20582;52.196;20.952;2023-04-24T05:56:16;22.20;;;10.95;;
34317;SDS011;20582;52.196;20.952;2023-04-24T05:58:42;18.25;;;11.27;;
34317;SDS011;20582;52.196;20.952;2023-04-24T06:01:08;19.35;;;11.27;;
34317;SDS011;20582;52.196;20.952;2023-04-24T06:03:34;20.27;;;11.45;;
34317;SDS011;20582;52.196;20.952;2023-04-24T06:06:00;25.73;;;11.95;;
34317;SDS011;20582;52.196;20.952;2023-04-24T06:08:26;22.73;;;11.95;;
34317;SDS011;20582;52.196;20.952;2023-04-24T06:10:52;21.13;;;10.52;;
34317;SDS011;20582;52.196;20.952;2023-04-24T06:13:18;23.95;;;11.07;;
34317;SDS011;20582;52.196;20.952;2023-04-24T06:15:44;21.02;;;11.77;;
34317;SDS011;20582;52.196;20.952;2023-04-24T06:18:10;23.02;;;11.23;;
34317;SDS011;20582;52.196;20.952;2023-04-24T06:20:37;25.33;;;11.95;;
34317;SDS011;20582;52.196;20.952;2023-04-24T06:23:03;24.50;;;11.38;;
34317;SDS011;20582;52.196;20.952;2023-04-24T06:25:29;18.45;;;10.73;;
34317;SDS011;20582;52.196;20.952;2023-04-24T06:27:55;23.25;;;10.52;;
34317;SDS011;20582;52.196;20.952;2023-04-24T06:30:21;20.92;;;9.98;;
34317;SDS011;20582;52.196;20.952;2023-04-24T06:32:47;19.80;;;10.15;;
34317;SDS011;20582;52.196;20.952;2023-04-24T06:35:13;18.15;;;10.07;;
34317;SDS011;20582;52.196;20.952;2023-04-24T06:37:40;22.58;;;9.60;;
34317;SDS011;20582;52.196;20.952;2023-04-24T06:40:07;18.38;;;10.43;;
34317;SDS011;20582;52.196;20.952;2023-04-24T06:42:33;20.02;;;10.60;;
34317;SDS011;20582;52.196;20.952;2023-04-24T06:45:00;17.67;;;9.55;;
34317;SDS011;20582;52.196;20.952;2023-04-24T06:47:26;20.85;;;10.90;;
34317;SDS011;20582;52.196;20.952;2023-04-24T06:49:52;21.35;;;10.70;;
34317;SDS011;20582;52.196;20.952;2023-04-24T06:52:18;19.02;;;10.77;;
34317;SDS011;20582;52.196;20.952;2023-04-24T06:54:45;21.92;;;11.52;;
34317;SDS011;20582;52.196;20.952;2023-04-24T06:57:11;22.58;;;11.32;;
34317;SDS011;20582;52.196;20.952;2023-04-24T06:59:37;19.60;;;11.25;;
34317;SDS011;20582;52.196;20.952;2023-04-24T07:02:03;24.27;;;10.90;;
34317;SDS011;20582;52.196;20.952;2023-04-24T07:04:29;23.17;;;11.90;;
34317;SDS011;20582;52.196;20.952;2023-04-24T07:06:56;27.40;;;12.70;;
34317;SDS011;20582;52.196;20.952;2023-04-24T07:09:23;21.33;;;10.85;;
34317;SDS011;20582;52.196;20.952;2023-04-24T07:11:50;22.33;;;11.50;;
34317;SDS011;20582;52.196;20.952;2023-04-24T07:14:16;21.42;;;12.00;;
34317;SDS011;20582;52.196;20.952;2023-04-24T07:16:42;20.02;;;10.40;;
34317;SDS011;20582;52.196;20.952;2023-04-24T07:19:08;18.08;;;10.23;;
34317;SDS011;20582;52.196;20.952;2023-04-24T07:21:34;22.02;;;9.95;;
34317;SDS011;20582;52.196;20.952;2023-04-24T07:24:00;19.27;;;10.45;;
34317;SDS011;20582;52.196;20.952;2023-04-24T07:26:27;21.15;;;11.38;;
34317;SDS011;20582;52.196;20.952;2023-04-24T07:28:53;22.27;;;10.32;;
34317;SDS011;20582;52.196;20.952;2023-04-24T07:31:20;18.65;;;10.25;;
34317;SDS011;20582;52.196;20.952;2023-04-24T07:33:46;24.38;;;9.95;;
34317;SDS011;20582;52.196;20.952;2023-04-24T07:36:12;18.13;;;9.90;;
34317;SDS011;20582;52.196;20.952;2023-04-24T07:38:42;15.60;;;9.90;;
34317;SDS011;20582;52.196;20.952;2023-04-24T07:41:08;18.77;;;10.23;;
34317;SDS011;20582;52.196;20.952;2023-04-24T07:43:34;20.38;;;10.27;;
34317;SDS011;20582;52.196;20.952;2023-04-24T07:46:00;21.13;;;9.73;;
34317;SDS011;20582;52.196;20.952;2023-04-24T07:48:27;19.63;;;10.77;;
34317;SDS011;20582;52.196;20.952;2023-04-24T07:50:53;17.55;;;10.35;;
34317;SDS011;20582;52.196;20.952;2023-04-24T07:53:19;20.52;;;10.82;;
34317;SDS011;20582;52.196;20.952;2023-04-24T07:55:45;20.52;;;9.85;;
34317;SDS011;20582;52.196;20.952;2023-04-24T07:58:11;19.30;;;10.05;;
34317;SDS011;20582;52.196;20.952;2023-04-24T08:00:37;18.83;;;10.43;;
34317;SDS011;20582;52.196;20.952;2023-04-24T08:03:03;21.10;;;10.05;;
34317;SDS011;20582;52.196;20.952;2023-04-24T08:05:29;21.17;;;10.18;;
34317;SDS011;20582;52.196;20.952;2023-04-24T08:07:55;24.88;;;9.57;;
34317;SDS011;20582;52.196;20.952;2023-04-24T08:10:22;23.83;;;10.05;;
34317;SDS011;20582;52.196;20.952;2023-04-24T08:12:48;23.88;;;10.52;;
34317;SDS011;20582;52.196;20.952;2023-04-24T08:15:14;25.27;;;10.80;;
34317;SDS011;20582;52.196;20.952;2023-04-24T08:17:40;23.70;;;10.65;;
34317;SDS011;20582;52.196;20.952;2023-04-24T08:20:06;21.50;;;10.80;;
34317;SDS011;20582;52.196;20.952;2023-04-24T08:22:35;23.55;;;10.93;;
34317;SDS011;20582;52.196;20.952;2023-04-24T08:25:01;18.33;;;10.13;;
34317;SDS011;20582;52.196;20.952;2023-04-24T08:27:27;22.35;;;10.80;;
34317;SDS011;20582;52.196;20.952;2023-04-24T08:29:53;21.38;;;10.73;;
34317;SDS011;20582;52.196;20.952;2023-04-24T08:32:19;21.73;;;10.18;;
34317;SDS011;20582;52.196;20.952;2023-04-24T08:34:45;17.50;;;10.15;;
34317;SDS011;20582;52.196;20.952;2023-04-24T08:37:11;19.17;;;9.90;;
34317;SDS011;20582;52.196;20.952;2023-04-24T08:39:37;21.00;;;10.30;;
34317;SDS011;20582;52.196;20.952;2023-04-24T08:42:04;22.40;;;10.55;;
34317;SDS011;20582;52.196;20.952;2023-04-24T08:44:32;20.13;;;10.38;;
34317;SDS011;20582;52.196;20.952;2023-04-24T08:46:59;17.85;;;10.07;;
34317;SDS011;20582;52.196;20.952;2023-04-24T08:49:26;18.45;;;10.18;;
34317;SDS011;20582;52.196;20.952;2023-04-24T08:51:52;19.30;;;9.90;;
34317;SDS011;20582;52.196;20.952;2023-04-24T08:54:18;20.80;;;10.75;;
34317;SDS011;20582;52.196;20.952;2023-04-24T08:56:44;17.58;;;10.38;;
34317;SDS011;20582;52.196;20.952;2023-04-24T08:59:13;20.92;;;10.35;;
34317;SDS011;20582;52.196;20.952;2023-04-24T09:01:40;17.50;;;10.27;;
34317;SDS011;20582;52.196;20.952;2023-04-24T09:04:06;22.20;;;10.00;;
34317;SDS011;20582;52.196;20.952;2023-04-24T09:06:33;16.73;;;9.73;;
34317;SDS011;20582;52.196;20.952;2023-04-24T09:09:00;19.83;;;9.88;;
34317;SDS011;20582;52.196;20.952;2023-04-24T09:11:27;17.55;;;10.02;;
34317;SDS011;20582;52.196;20.952;2023-04-24T09:13:53;19.02;;;10.55;;
34317;SDS011;20582;52.196;20.952;2023-04-24T09:16:20;16.30;;;10.13;;
34317;SDS011;20582;52.196;20.952;2023-04-24T09:18:48;17.52;;;10.80;;
34317;SDS011;20582;52.196;20.952;2023-04-24T09:21:14;18.38;;;10.23;;
34317;SDS011;20582;52.196;20.952;2023-04-24T09:23:40;19.60;;;9.75;;
34317;SDS011;20582;52.196;20.952;2023-04-24T09:26:06;23.65;;;10.10;;
34317;SDS011;20582;52.196;20.952;2023-04-24T09:28:35;17.98;;;10.43;;
34317;SDS011;20582;52.196;20.952;2023-04-24T09:31:02;22.55;;;10.50;;
34317;SDS011;20582;52.196;20.952;2023-04-24T09:33:28;19.40;;;9.88;;
34317;SDS011;20582;52.196;20.952;2023-04-24T09:35:54;19.52;;;9.55;;
34317;SDS011;20582;52.196;20.952;2023-04-24T09:38:27;15.00;;;10.07;;
34317;SDS011;20582;52.196;20.952;2023-04-24T09:40:58;18.58;;;9.43;;
34317;SDS011;20582;52.196;20.952;2023-04-24T09:43:25;13.90;;;7.85;;
34317;SDS011;20582;52.196;20.952;2023-04-24T09:45:52;13.40;;;8.63;;
34317;SDS011;20582;52.196;20.952;2023-04-24T09:48:29;13.27;;;8.00;;
34317;SDS011;20582;52.196;20.952;2023-04-24T09:50:55;14.95;;;8.70;;
34317;SDS011;20582;52.196;20.952;2023-04-24T09:53:24;18.42;;;8.45;;
34317;SDS011;20582;52.196;20.952;2023-04-24T09:55:51;13.82;;;8.70;;
34317;SDS011;20582;52.196;20.952;2023-04-24T09:58:18;10.50;;;7.82;;
34317;SDS011;20582;52.196;20.952;2023-04-24T10:00:44;14.02;;;8.50;;
34317;SDS011;20582;52.196;20.952;2023-04-24T10:03:11;11.32;;;7.63;;
34317;SDS011;20582;52.196;20.952;2023-04-24T10:05:37;11.10;;;7.07;;
34317;SDS011;20582;52.196;20.952;2023-04-24T10:08:04;12.52;;;7.30;;
34317;SDS011;20582;52.196;20.952;2023-04-24T10:10:31;10.88;;;7.18;;
34317;SDS011;20582;52.196;20.952;2023-04-24T10:12:57;10.60;;;7.25;;
34317;SDS011;20582;52.196;20.952;2023-04-24T10:15:23;13.93;;;6.53;;
34317;SDS011;20582;52.196;20.952;2023-04-24T10:17:50;13.20;;;9.27;;
34317;SDS011;20582;52.196;20.952;2023-04-24T10:20:19;17.73;;;10.63;;
34317;SDS011;20582;52.196;20.952;2023-04-24T10:22:47;10.75;;;6.88;;
34317;SDS011;20582;52.196;20.952;2023-04-24T10:25:14;11.80;;;7.20;;
34317;SDS011;20582;52.196;20.952;2023-04-24T10:27:42;11.95;;;6.63;;
34317;SDS011;20582;52.196;20.952;2023-04-24T10:30:08;13.10;;;6.95;;
34317;SDS011;20582;52.196;20.952;2023-04-24T10:32:36;14.40;;;7.28;;
34317;SDS011;20582;52.196;20.952;2023-04-24T10:35:02;10.73;;;7.40;;
34317;SDS011;20582;52.196;20.952;2023-04-24T10:37:28;13.93;;;8.18;;
34317;SDS011;20582;52.196;20.952;2023-04-24T10:39:55;10.43;;;7.35;;
34317;SDS011;20582;52.196;20.952;2023-04-24T10:42:21;11.27;;;7.68;;
34317;SDS011;20582;52.196;20.952;2023-04-24T10:44:47;16.00;;;8.38;;
34317;SDS011;20582;52.196;20.952;2023-04-24T10:47:14;12.80;;;7.78;;
34317;SDS011;20582;52.196;20.952;2023-04-24T10:49:40;11.57;;;7.60;;
34317;SDS011;20582;52.196;20.952;2023-04-24T10:52:06;14.77;;;7.30;;
34317;SDS011;20582;52.196;20.952;2023-04-24T10:54:35;14.77;;;7.88;;
34317;SDS011;20582;52.196;20.952;2023-04-24T10:59:50;11.55;;;7.90;;
34317;SDS011;20582;52.196;20.952;2023-04-24T11:02:17;23.20;;;8.00;;
34317;SDS011;20582;52.196;20.952;2023-04-24T11:04:44;14.88;;;7.15;;
34317;SDS011;20582;52.196;20.952;2023-04-24T11:07:10;12.05;;;6.63;;
34317;SDS011;20582;52.196;20.952;2023-04-24T11:09:36;11.50;;;6.65;;
34317;SDS011;20582;52.196;20.952;2023-04-24T11:12:08;12.65;;;6.80;;
34317;SDS011;20582;52.196;20.952;2023-04-24T11:17:38;13.63;;;7.10;;
34317;SDS011;20582;52.196;20.952;2023-04-24T11:20:11;14.18;;;7.10;;
34317;SDS011;20582;52.196;20.952;2023-04-24T11:22:37;12.70;;;7.35;;
34317;SDS011;20582;52.196;20.952;2023-04-24T11:25:05;11.63;;;7.40;;
34317;SDS011;20582;52.196;20.952;2023-04-24T11:27:32;14.98;;;7.70;;
34317;SDS011;20582;52.196;20.952;2023-04-24T11:30:01;14.13;;;7.65;;
34317;SDS011;20582;52.196;20.952;2023-04-24T11:37:27;11.95;;;6.85;;
34317;SDS011;20582;52.196;20.952;2023-04-24T11:39:54;10.23;;;6.65;;
34317;SDS011;20582;52.196;20.952;2023-04-24T11:42:45;12.49;;;6.41;;
34317;SDS011;20582;52.196;20.952;2023-04-24T11:45:12;9.77;;;6.95;;
34317;SDS011;20582;52.196;20.952;2023-04-24T11:47:38;12.45;;;6.78;;
34317;SDS011;20582;52.196;20.952;2023-04-24T11:50:05;24.48;;;8.35;;
34317;SDS011;20582;52.196;20.952;2023-04-24T11:52:31;11.50;;;6.80;;
34317;SDS011;20582;52.196;20.952;2023-04-24T11:54:57;9.70;;;5.80;;
34317;SDS011;20582;52.196;20.952;2023-04-24T11:57:24;12.75;;;7.43;;
34317;SDS011;20582;52.196;20.952;2023-04-24T11:59:52;11.73;;;6.20;;
34317;SDS011;20582;52.196;20.952;2023-04-24T12:02:25;11.32;;;5.82;;
34317;SDS011;20582;52.196;20.952;2023-04-24T12:04:55;9.30;;;6.30;;
34317;SDS011;20582;52.196;20.952;2023-04-24T12:07:21;11.55;;;6.80;;
34317;SDS011;20582;52.196;20.952;2023-04-24T12:09:48;11.13;;;7.25;;
34317;SDS011;20582;52.196;20.952;2023-04-24T12:12:18;13.18;;;6.50;;
34317;SDS011;20582;52.196;20.952;2023-04-24T12:17:10;8.90;;;6.63;;
34317;SDS011;20582;52.196;20.952;2023-04-24T12:19:36;12.05;;;6.95;;
34317;SDS011;20582;52.196;20.952;2023-04-24T12:22:02;12.13;;;6.72;;
34317;SDS011;20582;52.196;20.952;2023-04-24T12:24:29;15.82;;;6.90;;
34317;SDS011;20582;52.196;20.952;2023-04-24T12:26:56;10.90;;;5.65;;
34317;SDS011;20582;52.196;20.952;2023-04-24T12:29:22;14.50;;;7.30;;
34317;SDS011;20582;52.196;20.952;2023-04-24T12:31:50;11.85;;;6.00;;
34317;SDS011;20582;52.196;20.952;2023-04-24T12:34:22;10.70;;;6.03;;
34317;SDS011;20582;52.196;20.952;2023-04-24T12:36:49;8.10;;;5.68;;
34317;SDS011;20582;52.196;20.952;2023-04-24T12:39:18;13.98;;;6.00;;
34317;SDS011;20582;52.196;20.952;2023-04-24T12:41:54;14.25;;;7.00;;
34317;SDS011;20582;52.196;20.952;2023-04-24T12:44:28;21.02;;;5.30;;
34317;SDS011;20582;52.196;20.952;2023-04-24T12:46:54;38.83;;;6.68;;
34317;SDS011;20582;52.196;20.952;2023-04-24T12:49:20;47.15;;;6.30;;
34317;SDS011;20582;52.196;20.952;2023-04-24T12:51:46;41.40;;;6.05;;
34317;SDS011;20582;52.196;20.952;2023-04-24T12:54:12;22.65;;;5.25;;
34317;SDS011;20582;52.196;20.952;2023-04-24T12:56:38;16.65;;;5.15;;
34317;SDS011;20582;52.196;20.952;2023-04-24T12:59:04;18.00;;;4.90;;
34317;SDS011;20582;52.196;20.952;2023-04-24T13:01:30;15.13;;;4.57;;
34317;SDS011;20582;52.196;20.952;2023-04-24T13:03:56;19.00;;;5.15;;
34317;SDS011;20582;52.196;20.952;2023-04-24T13:06:22;17.67;;;4.90;;
34317;SDS011;20582;52.196;20.952;2023-04-24T13:08:48;18.98;;;5.05;;
34317;SDS011;20582;52.196;20.952;2023-04-24T13:11:14;31.30;;;5.72;;
34317;SDS011;20582;52.196;20.952;2023-04-24T13:13:40;18.10;;;5.18;;
34317;SDS011;20582;52.196;20.952;2023-04-24T13:16:06;15.13;;;5.10;;
34317;SDS011;20582;52.196;20.952;2023-04-24T13:18:32;24.30;;;5.10;;
34317;SDS011;20582;52.196;20.952;2023-04-24T13:20:58;14.73;;;4.32;;
34317;SDS011;20582;52.196;20.952;2023-04-24T13:23:24;13.50;;;4.65;;
34317;SDS011;20582;52.196;20.952;2023-04-24T13:25:51;14.25;;;4.53;;
34317;SDS011;20582;52.196;20.952;2023-04-24T13:28:17;12.88;;;4.60;;
34317;SDS011;20582;52.196;20.952;2023-04-24T13:30:43;11.20;;;4.53;;
34317;SDS011;20582;52.196;20.952;2023-04-24T13:33:09;12.40;;;4.72;;
34317;SDS011;20582;52.196;20.952;2023-04-24T13:35:35;11.70;;;4.70;;
34317;SDS011;20582;52.196;20.952;2023-04-24T13:38:01;10.63;;;4.43;;
34317;SDS011;20582;52.196;20.952;2023-04-24T13:40:30;12.35;;;4.68;;
34317;SDS011;20582;52.196;20.952;2023-04-24T13:42:56;10.35;;;4.90;;
34317;SDS011;20582;52.196;20.952;2023-04-24T13:45:22;10.32;;;5.25;;
34317;SDS011;20582;52.196;20.952;2023-04-24T13:47:48;14.70;;;6.88;;
34317;SDS011;20582;52.196;20.952;2023-04-24T13:50:14;13.63;;;5.22;;
34317;SDS011;20582;52.196;20.952;2023-04-24T13:52:40;10.77;;;4.50;;
34317;SDS011;20582;52.196;20.952;2023-04-24T13:55:06;11.15;;;6.53;;
34317;SDS011;20582;52.196;20.952;2023-04-24T13:57:32;11.07;;;4.80;;
34317;SDS011;20582;52.196;20.952;2023-04-24T13:59:58;11.15;;;5.03;;
34317;SDS011;20582;52.196;20.952;2023-04-24T14:02:28;9.90;;;4.22;;
34317;SDS011;20582;52.196;20.952;2023-04-24T14:04:54;14.23;;;4.82;;
34317;SDS011;20582;52.196;20.952;2023-04-24T14:07:20;8.98;;;4.60;;
34317;SDS011;20582;52.196;20.952;2023-04-24T14:09:46;14.80;;;8.45;;
34317;SDS011;20582;52.196;20.952;2023-04-24T14:12:12;8.73;;;4.50;;
34317;SDS011;20582;52.196;20.952;2023-04-24T14:14:41;13.27;;;5.20;;
34317;SDS011;20582;52.196;20.952;2023-04-24T14:17:07;10.52;;;6.50;;
34317;SDS011;20582;52.196;20.952;2023-04-24T14:19:33;26.92;;;11.15;;
34317;SDS011;20582;52.196;20.952;2023-04-24T14:21:59;22.40;;;11.52;;